createdAt,value
2022-08-19T00:01:53.159Z,11.40
2022-08-19T00:03:50.821Z,11.10
2022-08-19T00:05:50.726Z,10.10
2022-08-19T00:07:50.752Z,9.90
2022-08-19T00:09:50.697Z,10.10
2022-08-19T00:11:50.693Z,12.10
2022-08-19T00:13:50.731Z,9.60
2022-08-19T00:15:50.790Z,10.70
2022-08-19T00:17:50.757Z,10.70
2022-08-19T00:19:50.701Z,9.50
2022-08-19T00:21:50.693Z,10.70
2022-08-19T00:23:50.732Z,11.20
2022-08-19T00:25:50.712Z,10.00
2022-08-19T00:27:50.729Z,10.00
2022-08-19T00:29:52.386Z,10.70
2022-08-19T00:31:50.837Z,11.70
2022-08-19T00:33:50.721Z,12.90
2022-08-19T00:35:53.879Z,10.90
2022-08-19T00:37:50.801Z,10.80
2022-08-19T00:39:50.752Z,12.00
2022-08-19T00:41:50.774Z,10.40
2022-08-19T00:43:50.785Z,13.50
2022-08-19T00:45:50.707Z,10.60
2022-08-19T00:47:50.741Z,15.20
2022-08-19T00:49:50.810Z,15.00
2022-08-19T00:51:50.836Z,11.40
2022-08-19T00:53:50.828Z,12.50
2022-08-19T00:55:51.322Z,11.40
2022-08-19T00:57:50.785Z,10.90
2022-08-19T01:00:00.395Z,10.60
2022-08-19T01:01:50.897Z,12.70
2022-08-19T01:03:57.749Z,11.70
2022-08-19T01:05:50.801Z,12.30
2022-08-19T01:07:50.890Z,10.60
2022-08-19T01:09:50.845Z,14.40
2022-08-19T01:11:50.788Z,11.70
2022-08-19T01:13:50.774Z,11.00
2022-08-19T01:15:50.832Z,12.00
2022-08-19T01:17:50.781Z,11.20
2022-08-19T01:19:50.879Z,10.90
2022-08-19T01:21:50.832Z,10.60
2022-08-19T01:25:50.841Z,12.50
2022-08-19T01:31:59.255Z,10.80
2022-08-19T01:33:59.229Z,12.30
2022-08-19T01:35:59.261Z,9.90
2022-08-19T01:37:59.260Z,10.90
2022-08-19T01:39:59.317Z,12.30
2022-08-19T01:41:59.271Z,10.90
2022-08-19T01:44:13.156Z,10.80
2022-08-19T01:45:59.271Z,10.80
2022-08-19T01:48:01.827Z,16.00
2022-08-19T01:49:59.268Z,11.90
2022-08-19T01:51:59.288Z,12.90
2022-08-19T01:53:59.390Z,13.50
2022-08-19T01:55:59.244Z,13.30
2022-08-19T01:57:59.240Z,13.00
2022-08-19T01:59:59.255Z,11.60
2022-08-19T02:01:59.246Z,12.20
2022-08-19T02:03:59.289Z,12.70
2022-08-19T02:05:59.261Z,11.10
2022-08-19T02:08:29.292Z,12.70
2022-08-19T02:10:29.284Z,12.30
2022-08-19T02:12:29.265Z,12.00
2022-08-19T02:14:29.253Z,12.30
2022-08-19T02:16:29.350Z,11.70
2022-08-19T02:18:29.276Z,12.20
2022-08-19T02:20:29.275Z,12.00
2022-08-19T02:22:29.280Z,11.00
2022-08-19T02:24:29.291Z,14.30
2022-08-19T02:26:29.286Z,12.90
2022-08-19T02:28:29.276Z,10.60
2022-08-19T02:30:29.284Z,11.10
2022-08-19T02:32:29.282Z,14.00
2022-08-19T02:34:29.369Z,12.20
2022-08-19T02:36:29.252Z,10.90
2022-08-19T02:38:29.281Z,11.60
2022-08-19T02:40:29.301Z,13.40
2022-08-19T02:42:29.354Z,12.30
2022-08-19T02:44:31.811Z,13.60
2022-08-19T02:46:29.301Z,11.80
2022-08-19T02:48:29.359Z,12.60
2022-08-19T02:50:29.311Z,11.90
2022-08-19T02:52:29.301Z,12.40
2022-08-19T02:54:29.294Z,13.40
2022-08-19T02:56:29.295Z,11.80
2022-08-19T02:58:29.360Z,11.50
2022-08-19T03:00:29.325Z,12.10
2022-08-19T03:02:29.328Z,12.50
2022-08-19T03:04:29.375Z,12.70
2022-08-19T03:06:29.310Z,12.90
2022-08-19T03:08:29.321Z,12.10
2022-08-19T03:10:29.332Z,11.40
2022-08-19T03:12:29.338Z,11.80
2022-08-19T03:14:29.361Z,13.70
2022-08-19T03:16:29.400Z,11.80
2022-08-19T03:18:29.354Z,12.50
2022-08-19T03:20:29.328Z,11.70
2022-08-19T03:22:29.321Z,12.00
2022-08-19T03:24:29.357Z,12.70
2022-08-19T03:26:29.346Z,12.90
2022-08-19T03:28:29.364Z,12.70
2022-08-19T03:30:29.332Z,17.40
2022-08-19T03:32:33.065Z,12.90
2022-08-19T03:34:29.315Z,14.50
2022-08-19T03:36:29.580Z,14.40
2022-08-19T03:38:29.400Z,13.60
2022-08-19T03:40:29.333Z,14.80
2022-08-19T03:42:38.765Z,14.40
2022-08-19T03:44:29.343Z,14.30
2022-08-19T03:46:29.358Z,13.70
2022-08-19T03:48:29.374Z,14.70
2022-08-19T03:50:29.413Z,15.00
2022-08-19T03:52:29.340Z,13.50
2022-08-19T03:54:29.340Z,14.50
2022-08-19T03:56:29.356Z,14.60
2022-08-19T03:58:29.348Z,17.20
2022-08-19T04:00:29.380Z,13.60
2022-08-19T04:02:29.366Z,14.60
2022-08-19T04:04:29.521Z,15.80
2022-08-19T04:06:29.331Z,15.60
2022-08-19T04:08:29.441Z,13.20
2022-08-19T04:10:59.365Z,14.00
2022-08-19T04:12:59.376Z,15.40
2022-08-19T04:14:59.373Z,17.40
2022-08-19T04:16:59.421Z,13.10
2022-08-19T04:18:59.853Z,14.30
2022-08-19T04:20:59.349Z,12.20
2022-08-19T04:22:59.364Z,13.20
2022-08-19T04:24:59.401Z,14.00
2022-08-19T04:26:59.364Z,14.70
2022-08-19T04:28:59.357Z,15.10
2022-08-19T04:30:59.381Z,16.30
2022-08-19T04:32:59.363Z,19.10
2022-08-19T04:35:02.828Z,15.60
2022-08-19T04:36:59.381Z,16.00
2022-08-19T04:38:59.365Z,14.40
2022-08-19T04:40:59.381Z,14.20
2022-08-19T04:42:59.399Z,15.30
2022-08-19T04:44:59.393Z,14.60
2022-08-19T04:46:59.365Z,13.90
2022-08-19T04:48:59.375Z,13.90
2022-08-19T04:50:59.361Z,15.30
2022-08-19T04:52:59.402Z,15.00
2022-08-19T04:54:59.385Z,15.10
2022-08-19T04:56:59.406Z,18.50
2022-08-19T04:58:59.369Z,15.80
2022-08-19T05:00:59.437Z,13.70
2022-08-19T05:02:59.395Z,14.70
2022-08-19T05:04:59.386Z,15.50
2022-08-19T05:07:00.803Z,15.40
2022-08-19T05:08:59.396Z,14.50
2022-08-19T05:10:59.396Z,16.50
2022-08-19T05:12:59.434Z,12.70
2022-08-19T05:14:59.458Z,15.00
2022-08-19T05:17:25.679Z,13.90
2022-08-19T05:18:59.408Z,13.60
2022-08-19T05:20:59.493Z,12.30
2022-08-19T05:22:59.483Z,16.30
2022-08-19T05:25:12.314Z,14.80
2022-08-19T05:26:59.410Z,12.10
2022-08-19T05:28:59.447Z,13.90
2022-08-19T05:30:59.416Z,13.70
2022-08-19T05:32:59.429Z,12.90
2022-08-19T05:34:59.499Z,15.70
2022-08-19T05:36:59.471Z,13.40
2022-08-19T05:38:59.520Z,13.70
2022-08-19T05:40:59.575Z,13.80
2022-08-19T05:42:59.412Z,14.40
2022-08-19T05:44:59.412Z,14.40
2022-08-19T05:46:59.426Z,13.00
2022-08-19T05:48:59.432Z,13.80
2022-08-19T05:50:59.450Z,11.70
2022-08-19T05:52:59.439Z,12.90
2022-08-19T05:54:59.435Z,14.70
2022-08-19T05:56:59.399Z,13.60
2022-08-19T05:58:59.461Z,14.10
2022-08-19T06:00:59.461Z,16.90
2022-08-19T06:02:59.484Z,12.90
2022-08-19T06:04:59.466Z,14.00
2022-08-19T06:06:59.408Z,14.50
2022-08-19T06:08:59.415Z,14.20
2022-08-19T06:10:59.468Z,13.70
2022-08-19T06:13:29.554Z,13.60
2022-08-19T06:15:29.447Z,17.60
2022-08-19T06:17:29.448Z,14.60
2022-08-19T06:19:29.445Z,14.20
2022-08-19T06:21:29.451Z,14.20
2022-08-19T06:23:29.480Z,13.50
2022-08-19T06:25:30.615Z,14.90
2022-08-19T06:27:29.567Z,14.80
2022-08-19T06:29:29.439Z,14.60
2022-08-19T06:31:29.444Z,12.90
2022-08-19T06:33:29.439Z,13.50
2022-08-19T06:35:29.515Z,15.60
2022-08-19T06:37:29.455Z,12.80
2022-08-19T06:39:29.554Z,13.20
2022-08-19T06:41:29.487Z,16.30
2022-08-19T06:43:29.639Z,13.60
2022-08-19T06:45:34.984Z,14.00
2022-08-19T06:47:29.494Z,13.90
2022-08-19T06:49:29.477Z,16.30
2022-08-19T06:51:29.457Z,14.00
2022-08-19T06:53:29.538Z,12.80
2022-08-19T06:55:29.470Z,13.40
2022-08-19T06:57:29.491Z,13.60
2022-08-19T06:59:29.481Z,13.30
2022-08-19T07:01:29.469Z,13.60
2022-08-19T07:03:29.504Z,13.10
2022-08-19T07:05:29.527Z,12.20
2022-08-19T07:07:29.479Z,14.00
2022-08-19T07:09:29.489Z,12.50
2022-08-19T07:11:29.468Z,12.50
2022-08-19T07:13:29.498Z,12.40
2022-08-19T07:15:29.472Z,12.60
2022-08-19T07:17:29.473Z,12.80
2022-08-19T07:19:29.546Z,14.40
2022-08-19T07:21:29.716Z,14.80
2022-08-19T07:23:29.573Z,14.40
2022-08-19T07:25:32.556Z,14.70
2022-08-19T07:27:29.499Z,12.40
2022-08-19T07:29:29.472Z,14.10
2022-08-19T07:31:31.217Z,14.50
2022-08-19T07:33:29.513Z,14.50
2022-08-19T07:35:29.522Z,14.20
2022-08-19T07:37:32.502Z,14.50
2022-08-19T07:39:29.675Z,14.70
2022-08-19T07:41:29.558Z,15.20
2022-08-19T07:43:31.436Z,15.10
2022-08-19T07:45:29.479Z,15.00
2022-08-19T07:47:49.241Z,15.20
2022-08-19T07:49:29.548Z,15.30
2022-08-19T07:51:36.901Z,13.40
2022-08-19T07:53:29.517Z,15.70
2022-08-19T07:55:43.256Z,13.60
2022-08-19T07:57:29.532Z,15.20
2022-08-19T07:59:29.518Z,13.20
2022-08-19T08:01:29.593Z,14.70
2022-08-19T08:03:29.513Z,14.70
2022-08-19T08:05:29.522Z,13.90
2022-08-19T08:07:31.559Z,14.30
2022-08-19T08:09:29.538Z,14.00
2022-08-19T08:12:04.847Z,14.30
2022-08-19T08:14:00.892Z,17.00
2022-08-19T08:15:59.515Z,14.30
2022-08-19T08:17:59.500Z,15.60
2022-08-19T08:19:59.551Z,14.50
2022-08-19T08:21:59.553Z,14.20
2022-08-19T08:25:59.548Z,15.60
2022-08-19T08:27:59.507Z,14.90
2022-08-19T08:29:59.564Z,12.90
2022-08-19T08:31:59.797Z,13.20
2022-08-19T08:33:59.528Z,19.10
2022-08-19T08:35:59.629Z,14.60
2022-08-19T08:37:59.665Z,11.60
2022-08-19T08:39:59.659Z,13.10
2022-08-19T08:41:59.637Z,13.60
2022-08-19T08:43:59.653Z,12.50
2022-08-19T08:45:59.553Z,13.70
2022-08-19T08:47:59.549Z,12.40
2022-08-19T08:52:00.372Z,12.60
2022-08-19T08:55:57.470Z,11.90
2022-08-19T08:57:57.546Z,14.70
2022-08-19T08:59:57.529Z,14.30
2022-08-19T09:01:57.563Z,13.20
2022-08-19T09:03:57.539Z,15.20
2022-08-19T09:05:57.477Z,12.60
2022-08-19T09:07:57.620Z,13.80
2022-08-19T09:09:57.612Z,13.00
2022-08-19T09:11:57.575Z,13.70
2022-08-19T09:13:57.519Z,14.60
2022-08-19T09:15:57.596Z,14.30
2022-08-19T09:17:57.526Z,14.70
2022-08-19T09:19:57.531Z,13.90
2022-08-19T09:21:57.494Z,16.30
2022-08-19T09:23:57.583Z,12.90
2022-08-19T09:25:57.658Z,14.60
2022-08-19T09:28:02.955Z,13.90
2022-08-19T09:29:57.524Z,12.90
2022-08-19T09:31:57.509Z,14.90
2022-08-19T09:33:57.519Z,13.00
2022-08-19T09:35:57.536Z,13.30
2022-08-19T09:37:59.587Z,13.50
2022-08-19T09:39:57.627Z,13.20
2022-08-19T09:41:57.597Z,13.40
2022-08-19T09:43:57.553Z,14.20
2022-08-19T09:45:57.613Z,12.40
2022-08-19T09:47:57.646Z,15.00
2022-08-19T09:49:57.596Z,14.20
2022-08-19T09:51:57.571Z,14.00
2022-08-19T09:53:57.615Z,14.00
2022-08-19T09:55:57.552Z,18.00
2022-08-19T09:57:57.520Z,13.60
2022-08-19T09:59:57.533Z,15.50
2022-08-19T10:01:57.542Z,12.80
2022-08-19T10:04:27.541Z,12.90
2022-08-19T10:06:46.120Z,13.50
2022-08-19T10:08:27.546Z,13.70
2022-08-19T10:10:27.628Z,13.60
2022-08-19T10:12:27.568Z,13.50
2022-08-19T10:14:27.548Z,12.20
2022-08-19T10:16:30.367Z,12.60
2022-08-19T10:18:27.586Z,13.30
2022-08-19T10:20:27.579Z,13.20
2022-08-19T10:22:27.572Z,15.10
2022-08-19T10:24:27.632Z,14.80
2022-08-19T10:26:28.008Z,12.60
2022-08-19T10:28:27.650Z,12.80
2022-08-19T10:30:27.624Z,14.50
2022-08-19T10:32:34.183Z,13.70
2022-08-19T10:34:28.520Z,14.60
2022-08-19T10:36:27.609Z,16.30
2022-08-19T10:38:31.359Z,14.40
2022-08-19T10:40:27.707Z,15.20
2022-08-19T10:42:27.641Z,14.10
2022-08-19T10:44:32.254Z,15.00
2022-08-19T10:46:27.660Z,15.70
2022-08-19T10:48:27.612Z,15.30
2022-08-19T10:50:28.725Z,15.00
2022-08-19T10:52:32.428Z,15.50
2022-08-19T10:54:29.529Z,20.40
2022-08-19T10:56:27.556Z,16.40
2022-08-19T10:58:27.701Z,15.60
2022-08-19T11:00:27.696Z,17.50
2022-08-19T11:02:27.687Z,17.40
2022-08-19T11:04:28.846Z,18.10
2022-08-19T11:06:27.704Z,16.90
2022-08-19T11:08:27.612Z,16.80
2022-08-19T11:10:27.663Z,16.40
2022-08-19T11:12:27.598Z,17.30
2022-08-19T11:14:27.600Z,20.10
2022-08-19T11:16:27.690Z,22.20
2022-08-19T11:18:27.683Z,22.40
2022-08-19T11:20:27.608Z,22.80
2022-08-19T11:22:31.771Z,21.00
2022-08-19T11:24:27.632Z,21.00
2022-08-19T11:26:27.647Z,19.50
2022-08-19T11:28:27.685Z,19.40
2022-08-19T11:30:27.636Z,24.50
2022-08-19T11:32:27.582Z,20.80
2022-08-19T11:34:27.587Z,20.00
2022-08-19T11:36:27.701Z,24.00
2022-08-19T11:38:27.636Z,20.80
2022-08-19T11:40:27.656Z,23.10
2022-08-19T11:42:27.587Z,21.30
2022-08-19T11:44:27.599Z,19.00
2022-08-19T11:46:27.598Z,18.40
2022-08-19T11:48:27.628Z,20.70
2022-08-19T11:50:27.633Z,21.50
2022-08-19T11:52:27.735Z,16.60
2022-08-19T11:54:27.678Z,18.40
2022-08-19T11:56:27.674Z,17.70
2022-08-19T11:58:27.605Z,16.70
2022-08-19T12:00:27.676Z,17.30
2022-08-19T12:02:57.708Z,15.90
2022-08-19T12:04:57.605Z,15.50
2022-08-19T12:06:57.655Z,17.80
2022-08-19T12:08:57.639Z,18.50
2022-08-19T12:10:57.695Z,15.10
2022-08-19T12:12:58.970Z,15.40
2022-08-19T12:14:57.679Z,17.80
2022-08-19T12:16:57.710Z,17.10
2022-08-19T12:18:57.735Z,16.80
2022-08-19T12:20:57.674Z,18.10
2022-08-19T12:22:57.745Z,17.30
2022-08-19T12:24:57.657Z,18.40
2022-08-19T12:27:00.794Z,19.40
2022-08-19T12:28:58.715Z,17.40
2022-08-19T12:30:57.733Z,16.90
2022-08-19T12:32:57.668Z,17.90
2022-08-19T12:34:57.678Z,15.40
2022-08-19T12:36:57.682Z,18.70
2022-08-19T12:38:57.659Z,18.90
2022-08-19T12:41:00.322Z,19.60
2022-08-19T12:42:57.627Z,18.80
2022-08-19T12:44:57.704Z,18.40
2022-08-19T12:46:57.781Z,16.40
2022-08-19T12:48:57.627Z,15.10
2022-08-19T12:50:57.792Z,14.30
2022-08-19T12:52:57.650Z,14.90
2022-08-19T12:54:57.666Z,15.00
2022-08-19T12:56:57.668Z,13.40
2022-08-19T12:58:57.720Z,16.70
2022-08-19T13:00:57.745Z,15.50
2022-08-19T13:02:57.717Z,14.20
2022-08-19T13:04:57.765Z,14.60
2022-08-19T13:06:57.686Z,15.90
2022-08-19T13:08:59.631Z,12.70
2022-08-19T13:10:57.714Z,15.60
2022-08-19T13:12:57.710Z,11.60
2022-08-19T13:14:57.728Z,13.70
2022-08-19T13:16:57.762Z,11.50
2022-08-19T13:18:57.681Z,14.40
2022-08-19T13:20:57.783Z,13.80
2022-08-19T13:22:57.763Z,14.20
2022-08-19T13:24:57.799Z,11.10
2022-08-19T13:26:57.713Z,14.10
2022-08-19T13:28:57.799Z,12.50
2022-08-19T13:30:57.762Z,11.90
2022-08-19T13:32:57.752Z,13.30
2022-08-19T13:34:57.784Z,13.30
2022-08-19T13:36:57.771Z,13.40
2022-08-19T13:38:57.809Z,12.70
2022-08-19T13:40:57.689Z,10.40
2022-08-19T13:42:57.696Z,13.70
2022-08-19T13:44:57.750Z,11.20
2022-08-19T13:46:57.755Z,12.70
2022-08-19T13:48:57.775Z,11.80
2022-08-19T13:50:57.782Z,9.70
2022-08-19T13:52:57.816Z,12.30
2022-08-19T13:54:57.729Z,11.10
2022-08-19T13:56:57.747Z,11.60
2022-08-19T13:58:59.356Z,11.60
2022-08-19T14:01:27.770Z,12.80
2022-08-19T14:03:27.748Z,10.80
2022-08-19T14:05:27.734Z,15.50
2022-08-19T14:07:27.748Z,10.20
2022-08-19T14:09:27.711Z,11.30
2022-08-19T14:11:27.718Z,14.00
2022-08-19T14:13:27.716Z,11.30
2022-08-19T14:15:27.731Z,10.80
2022-08-19T14:17:27.724Z,10.80
2022-08-19T14:19:30.071Z,11.20
2022-08-19T14:21:27.702Z,10.60
2022-08-19T14:23:27.759Z,11.10
2022-08-19T14:25:27.726Z,13.30
2022-08-19T14:27:27.746Z,10.10
2022-08-19T14:29:27.717Z,18.10
2022-08-19T14:31:30.694Z,13.10
2022-08-19T14:33:28.425Z,9.50
2022-08-19T14:35:27.747Z,11.80
2022-08-19T14:37:27.748Z,10.40
2022-08-19T14:39:27.754Z,11.40
2022-08-19T14:41:27.738Z,11.00
2022-08-19T14:43:27.724Z,12.00
2022-08-19T14:45:27.811Z,14.00
2022-08-19T14:47:27.786Z,10.20
2022-08-19T14:49:34.673Z,13.50
2022-08-19T14:51:27.821Z,11.50
2022-08-19T14:53:27.816Z,10.50
2022-08-19T14:55:27.763Z,11.10
2022-08-19T14:57:27.744Z,12.20
2022-08-19T14:59:27.744Z,12.70
2022-08-19T15:01:27.850Z,11.00
2022-08-19T15:03:27.766Z,11.50
2022-08-19T15:05:27.863Z,12.00
2022-08-19T15:07:28.301Z,11.70
2022-08-19T15:09:27.920Z,12.00
2022-08-19T15:11:27.798Z,10.60
2022-08-19T15:13:27.944Z,10.50
2022-08-19T15:15:27.812Z,10.80
2022-08-19T15:17:43.353Z,12.20
2022-08-19T15:19:27.803Z,11.80
2022-08-19T15:21:27.931Z,11.70
2022-08-19T15:23:27.860Z,11.90
2022-08-19T15:25:27.907Z,11.30
2022-08-19T15:27:27.928Z,11.70
2022-08-19T15:29:27.820Z,11.20
2022-08-19T15:31:28.861Z,11.50
2022-08-19T15:33:27.827Z,10.50
2022-08-19T15:35:27.848Z,11.30
2022-08-19T15:37:27.856Z,10.60
2022-08-19T15:39:27.910Z,10.80
2022-08-19T15:41:27.837Z,10.90
2022-08-19T15:43:27.964Z,11.00
2022-08-19T15:47:54.030Z,11.70
2022-08-19T15:49:56.686Z,12.60
2022-08-19T15:51:53.926Z,9.70
2022-08-19T15:53:53.908Z,11.00
2022-08-19T15:55:53.991Z,11.50
2022-08-19T15:57:54.117Z,10.90
2022-08-19T15:59:53.916Z,10.40
2022-08-19T16:01:53.945Z,10.40
2022-08-19T16:03:53.937Z,12.90
2022-08-19T16:05:53.958Z,10.60
2022-08-19T16:07:54.113Z,10.50
2022-08-19T16:09:53.909Z,10.00
2022-08-19T16:11:56.841Z,12.10
2022-08-19T16:13:54.031Z,10.40
2022-08-19T16:15:54.010Z,12.40
2022-08-19T16:17:56.525Z,11.10
2022-08-19T16:19:53.952Z,10.20
2022-08-19T16:21:53.931Z,9.30
2022-08-19T16:23:53.903Z,10.10
2022-08-19T16:25:53.912Z,9.30
2022-08-19T16:28:07.483Z,11.10
2022-08-19T16:29:53.922Z,11.70
2022-08-19T16:31:53.978Z,11.50
2022-08-19T16:33:53.978Z,9.00
2022-08-19T16:36:00.137Z,9.50
2022-08-19T16:37:54.061Z,10.70
2022-08-19T16:39:54.038Z,11.50
2022-08-19T16:41:54.077Z,11.70
2022-08-19T16:43:54.024Z,10.30
2022-08-19T16:45:54.008Z,12.20
2022-08-19T16:47:54.086Z,10.90
2022-08-19T16:49:55.472Z,12.40
2022-08-19T16:51:54.003Z,10.50
2022-08-19T16:53:54.035Z,11.10
2022-08-19T16:55:55.880Z,10.80
2022-08-19T16:57:54.168Z,9.60
2022-08-19T16:59:54.077Z,10.90
2022-08-19T17:01:54.048Z,9.70
2022-08-19T17:03:53.982Z,10.60
2022-08-19T17:05:54.236Z,11.00
2022-08-19T17:07:54.023Z,18.80
2022-08-19T17:09:54.034Z,22.20
2022-08-19T17:11:54.120Z,19.40
2022-08-19T17:13:54.175Z,13.80
2022-08-19T17:15:53.972Z,12.20
2022-08-19T17:17:54.121Z,10.20
2022-08-19T17:19:54.016Z,9.40
2022-08-19T17:21:54.041Z,10.30
2022-08-19T17:23:54.008Z,8.80
2022-08-19T17:25:54.076Z,10.70
2022-08-19T17:27:54.148Z,10.20
2022-08-19T17:29:54.047Z,10.50
2022-08-19T17:31:53.979Z,11.50
2022-08-19T17:33:54.944Z,13.00
2022-08-19T17:35:54.036Z,10.30
2022-08-19T17:37:54.154Z,10.60
2022-08-19T17:39:54.163Z,10.90
2022-08-19T17:41:54.050Z,12.00
2022-08-19T17:43:54.058Z,10.80
2022-08-19T17:45:53.991Z,11.70
2022-08-19T17:47:54.208Z,10.40
2022-08-19T17:50:24.012Z,13.10
2022-08-19T17:52:24.047Z,10.70
2022-08-19T17:54:24.045Z,11.20
2022-08-19T17:56:24.170Z,10.00
2022-08-19T17:58:24.066Z,11.70
2022-08-19T18:00:24.143Z,12.00
2022-08-19T18:02:24.101Z,10.30
2022-08-19T18:04:24.122Z,10.30
2022-08-19T18:06:24.031Z,12.30
2022-08-19T18:08:24.046Z,8.90
2022-08-19T18:10:24.105Z,11.70
2022-08-19T18:12:24.080Z,9.20
2022-08-19T18:14:24.079Z,12.50
2022-08-19T18:16:23.987Z,11.10
2022-08-19T18:18:24.123Z,12.10
2022-08-19T18:20:24.066Z,10.20
2022-08-19T18:22:24.051Z,10.90
2022-08-19T18:24:24.058Z,12.00
2022-08-19T18:26:24.097Z,10.90
2022-08-19T18:28:24.091Z,11.60
2022-08-19T18:30:24.142Z,12.40
2022-08-19T18:32:24.276Z,11.30
2022-08-19T18:34:24.129Z,12.50
2022-08-19T18:36:37.441Z,12.10
2022-08-19T18:38:24.047Z,16.00
2022-08-19T18:40:24.139Z,12.00
2022-08-19T18:42:24.116Z,11.70
2022-08-19T18:44:24.112Z,12.10
2022-08-19T18:46:24.066Z,11.30
2022-08-19T18:48:27.464Z,11.00
2022-08-19T18:50:24.076Z,12.00
2022-08-19T18:52:24.042Z,11.10
2022-08-19T18:54:24.092Z,11.50
2022-08-19T18:56:24.103Z,11.70
2022-08-19T18:58:26.176Z,13.90
2022-08-19T19:00:24.123Z,11.30
2022-08-19T19:02:24.170Z,12.50
2022-08-19T19:04:24.151Z,12.10
2022-08-19T19:06:24.090Z,12.10
2022-08-19T19:08:27.367Z,14.00
2022-08-19T19:10:24.090Z,12.00
2022-08-19T19:12:24.125Z,15.60
2022-08-19T19:14:47.679Z,12.00
2022-08-19T19:16:24.712Z,15.00
2022-08-19T19:18:24.175Z,11.70
2022-08-19T19:20:24.167Z,12.10
2022-08-19T19:22:24.108Z,11.20
2022-08-19T19:24:24.101Z,11.70
2022-08-19T19:26:24.095Z,11.90
2022-08-19T19:28:24.147Z,13.00
2022-08-19T19:30:24.148Z,12.70
2022-08-19T19:32:24.081Z,12.10
2022-08-19T19:34:29.484Z,12.00
2022-08-19T19:36:24.169Z,10.10
2022-08-19T19:38:24.085Z,11.20
2022-08-19T19:40:24.154Z,12.00
2022-08-19T19:42:24.109Z,11.30
2022-08-19T19:44:30.658Z,11.00
2022-08-19T19:46:24.079Z,11.70
2022-08-19T19:48:24.073Z,11.60
2022-08-19T19:50:24.186Z,13.40
2022-08-19T19:52:54.093Z,11.60
2022-08-19T19:54:54.073Z,13.30
2022-08-19T19:56:54.136Z,13.00
2022-08-19T19:58:54.141Z,13.40
2022-08-19T20:00:54.189Z,15.50
2022-08-19T20:02:54.211Z,12.70
2022-08-19T20:04:54.173Z,13.40
2022-08-19T20:06:54.193Z,12.20
2022-08-19T20:08:54.151Z,13.70
2022-08-19T20:10:54.117Z,14.40
2022-08-19T20:12:54.122Z,16.50
2022-08-19T20:14:54.203Z,14.20
2022-08-19T20:16:54.202Z,13.00
2022-08-19T20:18:57.061Z,12.40
2022-08-19T20:20:54.209Z,15.10
2022-08-19T20:22:54.105Z,13.90
2022-08-19T20:24:54.160Z,12.50
2022-08-19T20:26:54.133Z,13.70
2022-08-19T20:29:05.318Z,14.50
2022-08-19T20:30:54.157Z,13.60
2022-08-19T20:32:54.182Z,12.30
2022-08-19T20:34:54.204Z,14.70
2022-08-19T20:36:54.226Z,15.20
2022-08-19T20:38:54.122Z,14.00
2022-08-19T20:40:54.141Z,15.70
2022-08-19T20:42:54.144Z,13.10
2022-08-19T20:44:54.160Z,17.20
2022-08-19T20:46:54.950Z,15.70
2022-08-19T20:48:54.226Z,15.70
2022-08-19T20:50:54.213Z,17.10
2022-08-19T20:52:54.246Z,13.30
2022-08-19T20:54:54.163Z,13.90
2022-08-19T20:56:54.165Z,14.30
2022-08-19T20:58:59.338Z,13.80
2022-08-19T21:00:54.240Z,16.30
2022-08-19T21:02:54.203Z,13.60
2022-08-19T21:04:54.253Z,14.80
2022-08-19T21:06:54.241Z,15.10
2022-08-19T21:08:54.233Z,13.20
2022-08-19T21:10:54.120Z,13.90
2022-08-19T21:12:54.176Z,12.70
2022-08-19T21:14:54.164Z,12.40
2022-08-19T21:16:54.111Z,15.90
2022-08-19T21:18:54.149Z,15.00
2022-08-19T21:20:54.147Z,14.60
2022-08-19T21:22:54.241Z,13.30
2022-08-19T21:24:54.201Z,12.50
2022-08-19T21:26:54.199Z,11.90
2022-08-19T21:28:54.311Z,14.70
2022-08-19T21:30:54.245Z,13.90
2022-08-19T21:32:54.239Z,12.90
2022-08-19T21:34:54.269Z,12.90
2022-08-19T21:36:54.292Z,12.90
2022-08-19T21:38:54.133Z,12.50
2022-08-19T21:40:54.173Z,12.80
2022-08-19T21:42:54.171Z,12.70
2022-08-19T21:44:54.237Z,14.80
2022-08-19T21:46:54.150Z,15.50
2022-08-19T21:48:54.149Z,13.00
2022-08-19T21:50:54.262Z,14.60
2022-08-19T21:55:24.241Z,14.50
2022-08-19T21:57:24.247Z,14.50
2022-08-19T21:59:24.248Z,13.20
2022-08-19T22:01:24.280Z,13.00
2022-08-19T22:03:24.294Z,13.50
2022-08-19T22:05:24.682Z,13.80
2022-08-19T22:07:24.311Z,13.60
2022-08-19T22:09:25.817Z,13.10
2022-08-19T22:11:24.198Z,15.60
2022-08-19T22:13:24.202Z,12.60
2022-08-19T22:15:24.349Z,12.60
2022-08-19T22:17:24.274Z,12.80
2022-08-19T22:19:24.292Z,13.30
2022-08-19T22:21:39.785Z,16.60
2022-08-19T22:23:24.328Z,13.40
2022-08-19T22:25:31.194Z,13.60
2022-08-19T22:27:24.175Z,13.20
2022-08-19T22:29:34.033Z,13.00
2022-08-19T22:31:24.241Z,12.60
2022-08-19T22:33:24.262Z,13.00
2022-08-19T22:35:24.346Z,10.60
2022-08-19T22:37:24.364Z,14.10
2022-08-19T22:39:24.248Z,12.60
2022-08-19T22:41:24.324Z,15.30
2022-08-19T22:43:24.245Z,12.00
2022-08-19T22:45:24.229Z,13.10
2022-08-19T22:47:24.206Z,11.60
2022-08-19T22:49:24.340Z,15.00
2022-08-19T22:51:24.286Z,13.80
2022-08-19T22:55:36.388Z,13.10
2022-08-19T22:57:36.412Z,13.90
2022-08-19T22:59:36.445Z,14.00
2022-08-19T23:01:36.489Z,12.20
2022-08-19T23:03:36.474Z,15.00
2022-08-19T23:05:37.079Z,13.50
2022-08-19T23:07:36.494Z,14.30
2022-08-19T23:09:36.702Z,14.50
2022-08-19T23:11:38.162Z,14.30
2022-08-19T23:13:36.447Z,14.20
2022-08-19T23:15:36.442Z,16.70
2022-08-19T23:17:36.476Z,15.20
2022-08-19T23:19:36.465Z,14.00
2022-08-19T23:21:36.461Z,13.70
2022-08-19T23:23:36.419Z,13.70
2022-08-19T23:25:36.384Z,14.30
2022-08-19T23:27:36.438Z,12.20
2022-08-19T23:29:36.466Z,13.90
2022-08-19T23:31:36.473Z,14.50
2022-08-19T23:33:50.576Z,14.00
2022-08-19T23:35:36.483Z,13.60
2022-08-19T23:37:36.501Z,12.70
2022-08-19T23:39:36.439Z,12.70
2022-08-19T23:41:36.419Z,12.80
2022-08-19T23:43:36.460Z,10.90
2022-08-19T23:45:36.461Z,11.40
2022-08-19T23:47:36.424Z,12.60
2022-08-19T23:49:36.487Z,13.90
2022-08-19T23:51:36.475Z,14.50
2022-08-19T23:53:36.422Z,14.30
2022-08-19T23:55:36.422Z,11.60
2022-08-19T23:57:36.428Z,13.40
2022-08-19T23:59:36.449Z,13.00
